Time;durP1;ratioP1;P1;durP2;ratioP2;P2;SDS_P1;SDS_P2;PMS_P1;PMS_P2;Temp;Humidity;BMP_temperature;BMP_pressure;BME280_temperature;BME280_humidity;BME280_pressure;Samples;Min_cycle;Max_cycle;Signal;HPM_P1;HPM_P2
2022/12/28 00:00:51;;;;;;;6.9;4.5;;;;;;;;;;;;;
2022/12/28 00:03:20;;;;;;;5;3.6;;;;;;;;;;;;;
2022/12/28 00:05:49;;;;;;;4.8;4.2;;;;;;;;;;;;;
2022/12/28 00:08:15;;;;;;;6.4;4.6;;;;;;;;;;;;;
2022/12/28 00:10:50;;;;;;;7;4.8;;;;;;;;;;;;;
2022/12/28 00:13:17;;;;;;;6.3;4.9;;;;;;;;;;;;;
2022/12/28 00:15:42;;;;;;;6;4.7;;;;;;;;;;;;;
2022/12/28 00:18:08;;;;;;;5.6;4.4;;;;;;;;;;;;;
2022/12/28 00:20:38;;;;;;;6.1;4.5;;;;;;;;;;;;;
2022/12/28 00:23:03;;;;;;;4.7;3.8;;;;;;;;;;;;;
2022/12/28 00:25:28;;;;;;;4.5;3.7;;;;;;;;;;;;;
2022/12/28 00:27:53;;;;;;;4.5;3.5;;;;;;;;;;;;;
2022/12/28 00:30:28;;;;;;;4.9;3.3;;;;;;;;;;;;;
2022/12/28 00:32:57;;;;;;;5.2;3.8;;;;;;;;;;;;;
2022/12/28 00:35:25;;;;;;;4.7;3.7;;;;;;;;;;;;;
2022/12/28 00:37:51;;;;;;;3.8;3.3;;;;;;;;;;;;;
2022/12/28 00:40:16;;;;;;;6.4;4;;;;;;;;;;;;;
2022/12/28 00:42:41;;;;;;;5.3;3.9;;;;;;;;;;;;;
2022/12/28 00:45:06;;;;;;;4.5;3.9;;;;;;;;;;;;;
2022/12/28 00:47:32;;;;;;;4.8;4.2;;;;;;;;;;;;;
2022/12/28 00:49:57;;;;;;;4.4;3.8;;;;;;;;;;;;;
2022/12/28 00:52:22;;;;;;;7.6;4.6;;;;;;;;;;;;;
2022/12/28 00:54:48;;;;;;;6.2;3.8;;;;;;;;;;;;;
2022/12/28 00:57:14;;;;;;;4;3;;;;;;;;;;;;;
2022/12/28 00:59:39;;;;;;;3.3;3;;;;;;;;;;;;;
2022/12/28 01:02:04;;;;;;;3.6;3;;;;;;;;;;;;;
2022/12/28 01:04:30;;;;;;;5;3.7;;;;;;;;;;;;;
2022/12/28 01:06:55;;;;;;;4.3;3.4;;;;;;;;;;;;;
2022/12/28 01:09:20;;;;;;;3.6;3;;;;;;;;;;;;;
2022/12/28 01:11:45;;;;;;;4.3;3.1;;;;;;;;;;;;;
2022/12/28 01:14:10;;;;;;;3.9;3.2;;;;;;;;;;;;;
2022/12/28 01:16:35;;;;;;;4.3;3.2;;;;;;;;;;;;;
2022/12/28 01:19:01;;;;;;;4.1;3;;;;;;;;;;;;;
2022/12/28 01:21:26;;;;;;;5.5;3.7;;;;;;;;;;;;;
2022/12/28 01:23:53;;;;;;;4.8;3.4;;;;;;;;;;;;;
2022/12/28 01:26:18;;;;;;;4.1;3.5;;;;;;;;;;;;;
2022/12/28 01:28:43;;;;;;;4.9;3.6;;;;;;;;;;;;;
2022/12/28 01:31:08;;;;;;;6.3;3.7;;;;;;;;;;;;;
2022/12/28 01:33:35;;;;;;;6.9;5;;;;;;;;;;;;;
2022/12/28 01:36:00;;;;;;;7.5;5;;;;;;;;;;;;;
2022/12/28 01:38:26;;;;;;;9.8;6.4;;;;;;;;;;;;;
2022/12/28 01:40:52;;;;;;;9.7;6.6;;;;;;;;;;;;;
2022/12/28 01:43:17;;;;;;;8.8;7.3;;;;;;;;;;;;;
2022/12/28 01:45:42;;;;;;;6.4;4.9;;;;;;;;;;;;;
2022/12/28 01:48:08;;;;;;;9.7;6;;;;;;;;;;;;;
2022/12/28 01:50:33;;;;;;;9.6;5.8;;;;;;;;;;;;;
2022/12/28 01:52:59;;;;;;;6.6;4.6;;;;;;;;;;;;;
2022/12/28 01:55:24;;;;;;;6.7;4.9;;;;;;;;;;;;;
2022/12/28 01:57:50;;;;;;;6.6;4.5;;;;;;;;;;;;;
2022/12/28 02:00:15;;;;;;;6.3;4.4;;;;;;;;;;;;;
2022/12/28 02:02:43;;;;;;;14.6;13.1;;;;;;;;;;;;;
2022/12/28 02:05:08;;;;;;;13.1;10.8;;;;;;;;;;;;;
2022/12/28 02:07:35;;;;;;;5.8;3.9;;;;;;;;;;;;;
2022/12/28 02:10:00;;;;;;;4.8;3.4;;;;;;;;;;;;;
2022/12/28 02:12:25;;;;;;;3.9;3.1;;;;;;;;;;;;;
2022/12/28 02:14:50;;;;;;;4;3.3;;;;;;;;;;;;;
2022/12/28 02:17:15;;;;;;;3.5;3.2;;;;;;;;;;;;;
2022/12/28 02:19:41;;;;;;;4.1;3.1;;;;;;;;;;;;;
2022/12/28 02:22:06;;;;;;;3.4;2.9;;;;;;;;;;;;;
2022/12/28 02:24:31;;;;;;;3.4;2.6;;;;;;;;;;;;;
2022/12/28 02:26:56;;;;;;;3.4;3;;;;;;;;;;;;;
2022/12/28 02:29:21;;;;;;;2.8;2.6;;;;;;;;;;;;;
2022/12/28 02:31:46;;;;;;;2.7;2.3;;;;;;;;;;;;;
2022/12/28 02:34:11;;;;;;;2.8;2.3;;;;;;;;;;;;;
2022/12/28 02:36:36;;;;;;;2.8;2.3;;;;;;;;;;;;;
2022/12/28 02:39:02;;;;;;;2.5;2.3;;;;;;;;;;;;;
2022/12/28 02:41:27;;;;;;;2.4;2.1;;;;;;;;;;;;;
2022/12/28 02:43:52;;;;;;;2.8;2.4;;;;;;;;;;;;;
2022/12/28 02:51:07;;;;;;;3.4;2.5;;;;;;;;;;;;;
2022/12/28 02:53:33;;;;;;;3;2.7;;;;;;;;;;;;;
2022/12/28 02:56:10;;;;;;;3.3;2.7;;;;;;;;;;;;;
2022/12/28 02:58:27;;;;;;;3.6;3;;;;;;;;;;;;;
2022/12/28 03:00:52;;;;;;;4.3;3.5;;;;;;;;;;;;;
2022/12/28 03:03:17;;;;;;;4.1;3.3;;;;;;;;;;;;;
2022/12/28 03:08:20;;;;;;;5;3.8;;;;;;;;;;;;;
2022/12/28 03:10:32;;;;;;;4.6;3.2;;;;;;;;;;;;;
2022/12/28 03:12:58;;;;;;;3.3;2.7;;;;;;;;;;;;;
2022/12/28 03:15:30;;;;;;;3.6;2.7;;;;;;;;;;;;;
2022/12/28 03:32:26;;;;;;;2.6;2.3;;;;;;;;;;;;;
2022/12/28 03:34:52;;;;;;;2.8;2.2;;;;;;;;;;;;;
2022/12/28 03:37:17;;;;;;;3.1;2.1;;;;;;;;;;;;;
2022/12/28 03:39:43;;;;;;;2.5;2.3;;;;;;;;;;;;;
2022/12/28 03:44:34;;;;;;;2.1;1.9;;;;;;;;;;;;;
2022/12/28 03:47:00;;;;;;;2.5;2.1;;;;;;;;;;;;;
2022/12/28 03:49:26;;;;;;;2.4;2.1;;;;;;;;;;;;;
2022/12/28 03:51:51;;;;;;;3.4;2.2;;;;;;;;;;;;;
2022/12/28 03:54:16;;;;;;;3.4;2.5;;;;;;;;;;;;;
2022/12/28 03:56:42;;;;;;;2.8;2.5;;;;;;;;;;;;;
2022/12/28 03:59:08;;;;;;;4.9;2.7;;;;;;;;;;;;;
2022/12/28 04:02:33;;;;;;;3.1;2.4;;;;;;;0.64;100;944.0003;;;;
2022/12/28 04:04:58;;;;;;;5.1;2.9;;;;;;;0.68;100;944.0349;;;;
2022/12/28 04:07:30;;;;;;;4.2;3.5;;;;;;;0.73;100;944.043;;;;
2022/12/28 04:09:58;;;;;;;6.1;3.8;;;;;;;0.7;100;944.0588;;;;
2022/12/28 04:12:23;;;;;;;6;4.1;;;;;;;0.76;100;944.0513;;;;
2022/12/28 04:14:52;;;;;;;5.5;4;;;;;;;0.77;100;944.0201;;;;
2022/12/28 04:17:17;;;;;;;4.2;3.1;;;;;;;0.85;100;943.954;;;;
2022/12/28 04:19:49;;;;;;;4.6;2.7;;;;;;;0.86;100;943.9572;;;;
2022/12/28 04:22:19;;;;;;;3.6;2.4;;;;;;;0.9;100;944.0142;;;;
2022/12/28 04:24:45;;;;;;;4.6;2.7;;;;;;;0.86;100;943.9289;;;;
2022/12/28 04:27:13;;;;;;;2.6;1.8;;;;;;;0.86;100;944.0346;;;;
2022/12/28 04:29:38;;;;;;;2.5;2.3;;;;;;;0.91;100;943.9669;;;;
2022/12/28 04:32:06;;;;;;;2;1.8;;;;;;;0.97;100;944.1037;;;;
2022/12/28 04:34:32;;;;;;;2.5;1.9;;;;;;;1.04;100;944.0862;;;;
2022/12/28 04:37:02;;;;;;;2;1.8;;;;;;;0.99;100;944.0769;;;;
2022/12/28 04:39:27;;;;;;;1.9;1.8;;;;;;;0.84;100;944.0156;;;;
2022/12/28 04:41:56;;;;;;;2.8;2.3;;;;;;;0.72;100;944.0064;;;;
2022/12/28 04:44:21;;;;;;;3.4;2.4;;;;;;;0.69;100;944.0016;;;;
2022/12/28 04:46:49;;;;;;;2.6;2.2;;;;;;;0.76;100;944.0715;;;;
2022/12/28 04:49:14;;;;;;;2.9;2.5;;;;;;;0.85;100;944.0798;;;;
2022/12/28 04:51:44;;;;;;;3.8;2.9;;;;;;;0.96;100;944.1326;;;;
2022/12/28 04:54:09;;;;;;;5.6;3.7;;;;;;;0.94;100;944.192;;;;
2022/12/28 04:56:34;;;;;;;6.4;3.2;;;;;;;1.01;100;944.2291;;;;
2022/12/28 04:59:02;;;;;;;4;2.6;;;;;;;1.04;100;944.2227;;;;
2022/12/28 05:01:27;;;;;;;2.5;2.2;;;;;;;0.91;100;944.153;;;;
2022/12/28 05:03:53;;;;;;;3;2.5;;;;;;;0.79;100;944.1552;;;;
2022/12/28 05:06:18;;;;;;;3.2;2.3;;;;;;;0.75;100;944.1908;;;;
2022/12/28 05:08:43;;;;;;;3.3;2.6;;;;;;;0.75;100;944.1667;;;;
2022/12/28 05:11:08;;;;;;;2.9;2.3;;;;;;;0.78;100;944.1473;;;;
2022/12/28 05:13:33;;;;;;;3.7;2.2;;;;;;;0.8;100;944.2222;;;;
2022/12/28 05:16:03;;;;;;;2.6;2;;;;;;;0.71;100;944.1619;;;;
2022/12/28 05:18:29;;;;;;;2;1.8;;;;;;;0.6;100;944.0927;;;;
2022/12/28 05:20:59;;;;;;;3;2.5;;;;;;;0.7;100;944.0592;;;;
2022/12/28 05:23:25;;;;;;;2.3;2;;;;;;;0.76;100;944.0603;;;;
2022/12/28 05:25:50;;;;;;;3;2.5;;;;;;;0.86;100;944.0606;;;;
2022/12/28 05:28:15;;;;;;;4.6;3.6;;;;;;;0.9;100;944.0503;;;;
2022/12/28 05:30:44;;;;;;;3.2;2.9;;;;;;;0.8;100;944.0419;;;;
2022/12/28 05:33:09;;;;;;;3.5;3.2;;;;;;;0.76;100;944.0313;;;;
2022/12/28 05:35:41;;;;;;;3.2;2.5;;;;;;;0.75;100;943.9617;;;;
2022/12/28 05:38:11;;;;;;;2.6;1.9;;;;;;;0.76;100;943.9102;;;;
2022/12/28 05:40:36;;;;;;;2.9;2.1;;;;;;;0.69;100;943.9169;;;;
2022/12/28 05:43:04;;;;;;;4.1;2.9;;;;;;;0.75;100;943.8535;;;;
2022/12/28 05:45:30;;;;;;;4.7;3.1;;;;;;;0.65;100;943.8969;;;;
2022/12/28 05:47:59;;;;;;;5;3.5;;;;;;;0.62;100;943.8478;;;;
2022/12/28 05:50:24;;;;;;;4.5;3.4;;;;;;;0.58;100;943.8251;;;;
2022/12/28 05:52:50;;;;;;;3.8;2.6;;;;;;;0.58;100;943.7813;;;;
2022/12/28 05:55:15;;;;;;;3.2;2.7;;;;;;;0.56;100;943.7748;;;;
2022/12/28 05:57:40;;;;;;;4;3.2;;;;;;;0.52;100;943.7413;;;;
2022/12/28 06:00:08;;;;;;;4.2;3.8;;;;;;;0.44;100;943.6953;;;;
2022/12/28 06:02:33;;;;;;;5.6;4.6;;;;;;;0.32;100;943.5567;;;;
2022/12/28 06:04:59;;;;;;;5.6;4.5;;;;;;;0.29;100;943.6631;;;;
2022/12/28 06:07:24;;;;;;;5.2;4.3;;;;;;;0.35;100;943.5503;;;;
2022/12/28 06:09:51;;;;;;;4.9;3.9;;;;;;;0.4;100;943.5859;;;;
2022/12/28 06:12:16;;;;;;;4.3;3.8;;;;;;;0.45;100;943.5433;;;;
2022/12/28 06:14:43;;;;;;;5.1;3.6;;;;;;;0.47;100;943.4377;;;;
2022/12/28 06:17:09;;;;;;;5.4;3.4;;;;;;;0.51;100;943.5101;;;;
2022/12/28 06:19:36;;;;;;;5.5;4.1;;;;;;;0.5;100;943.5076;;;;
2022/12/28 06:22:01;;;;;;;4.7;4.2;;;;;;;0.54;100;943.4675;;;;
2022/12/28 06:24:30;;;;;;;4.4;3.7;;;;;;;0.6;100;943.4665;;;;
2022/12/28 06:26:55;;;;;;;4;3.1;;;;;;;0.63;100;943.4967;;;;
2022/12/28 06:29:24;;;;;;;8.4;6.2;;;;;;;0.64;100;943.48;;;;
2022/12/28 06:31:55;;;;;;;6.7;6.1;;;;;;;0.64;100;943.4622;;;;
2022/12/28 06:34:19;;;;;;;4.2;3.8;;;;;;;0.62;100;943.4369;;;;
2022/12/28 06:36:47;;;;;;;4.4;4;;;;;;;0.61;100;943.4614;;;;
2022/12/28 06:39:12;;;;;;;3.2;2.5;;;;;;;0.54;100;943.4641;;;;
2022/12/28 06:41:39;;;;;;;4.1;3.7;;;;;;;0.42;100;943.4529;;;;
2022/12/28 06:44:05;;;;;;;3;2.7;;;;;;;0.34;100;943.4836;;;;
2022/12/28 06:46:31;;;;;;;3.1;2.8;;;;;;;0.34;100;943.4119;;;;
2022/12/28 06:48:56;;;;;;;3.7;3;;;;;;;0.37;100;943.4852;;;;
2022/12/28 06:51:22;;;;;;;3.7;3;;;;;;;0.46;100;943.4299;;;;
2022/12/28 06:53:47;;;;;;;4.8;4.4;;;;;;;0.53;100;943.5269;;;;
2022/12/28 06:56:18;;;;;;;4.2;3.6;;;;;;;0.63;100;943.5444;;;;
2022/12/28 06:58:45;;;;;;;3.5;3.1;;;;;;;0.7;100;943.5398;;;;
2022/12/28 07:01:10;;;;;;;5;2.9;;;;;;;0.75;100;943.5761;;;;
2022/12/28 07:03:37;;;;;;;4.1;3.2;;;;;;;0.78;100;943.5831;;;;
2022/12/28 07:06:02;;;;;;;4.5;3.2;;;;;;;0.86;100;943.584;;;;
2022/12/28 07:08:27;;;;;;;8.1;5.5;;;;;;;0.89;99.875;943.6192;;;;
2022/12/28 07:10:54;;;;;;;8;5.3;;;;;;;1;100;943.6295;;;;
2022/12/28 07:13:19;;;;;;;7.3;5.4;;;;;;;1.15;99.80469;943.6205;;;;
2022/12/28 07:15:49;;;;;;;8.6;4.9;;;;;;;1.21;99.4375;943.5989;;;;
2022/12/28 07:18:15;;;;;;;7.3;5;;;;;;;1.19;99.28613;943.5963;;;;
2022/12/28 07:20:44;;;;;;;8.9;6.2;;;;;;;1.17;99.15918;943.6456;;;;
2022/12/28 07:23:15;;;;;;;10.5;8;;;;;;;1.12;99.70703;943.6235;;;;
2022/12/28 07:25:40;;;;;;;13.7;9.7;;;;;;;1.1;99.76953;943.6083;;;;
2022/12/28 07:28:08;;;;;;;12.2;9.1;;;;;;;1.1;100;943.6005;;;;
2022/12/28 07:30:33;;;;;;;10.1;7.5;;;;;;;1.21;100;943.6293;;;;
2022/12/28 07:33:00;;;;;;;7.1;6.1;;;;;;;1.12;100;943.6875;;;;
2022/12/28 07:35:25;;;;;;;6.8;5.7;;;;;;;1.11;100;943.7381;;;;
2022/12/28 07:37:55;;;;;;;10.1;7.9;;;;;;;1.17;100;943.7075;;;;
2022/12/28 07:40:22;;;;;;;14.4;10.3;;;;;;;1.13;100;943.6511;;;;
2022/12/28 07:42:47;;;;;;;12.1;9.4;;;;;;;1.18;100;943.7419;;;;
2022/12/28 07:45:16;;;;;;;13.4;9.5;;;;;;;1.34;100;943.7828;;;;
2022/12/28 07:47:41;;;;;;;11.3;9.6;;;;;;;1.46;100;943.699;;;;
2022/12/28 07:50:09;;;;;;;12.2;8.7;;;;;;;1.52;100;943.7258;;;;
2022/12/28 07:52:34;;;;;;;11.4;9;;;;;;;1.6;99.39258;943.6183;;;;
2022/12/28 07:55:01;;;;;;;11.4;8.8;;;;;;;1.66;98.79492;943.7026;;;;
2022/12/28 07:57:25;;;;;;;14.1;10;;;;;;;1.63;98.12598;943.6886;;;;
2022/12/28 07:59:52;;;;;;;13.6;9.6;;;;;;;1.57;98;943.6091;;;;
2022/12/28 08:02:17;;;;;;;12.2;9.1;;;;;;;1.57;97.93262;943.6091;;;;
2022/12/28 08:04:46;;;;;;;10.5;7.5;;;;;;;1.68;97.70313;943.7328;;;;
2022/12/28 08:07:11;;;;;;;6.7;5.1;;;;;;;1.63;97.24512;943.7601;;;;
2022/12/28 08:09:38;;;;;;;9.3;6.4;;;;;;;1.47;97.8877;943.7715;;;;
2022/12/28 08:12:03;;;;;;;11.7;6.6;;;;;;;1.51;98.33398;943.7598;;;;
2022/12/28 08:14:29;;;;;;;13.7;7.2;;;;;;;1.65;98.24414;943.6465;;;;
2022/12/28 08:16:54;;;;;;;11.3;6.6;;;;;;;1.68;97.73438;943.6541;;;;
2022/12/28 08:19:22;;;;;;;10.2;6.7;;;;;;;1.76;98.02148;943.6244;;;;
2022/12/28 08:21:48;;;;;;;15.5;9.7;;;;;;;2;97.93262;943.5754;;;;
2022/12/28 08:24:12;;;;;;;7.7;5.6;;;;;;;2.1;96.28711;943.5056;;;;
2022/12/28 08:26:41;;;;;;;8;5.5;;;;;;;2.23;96.55078;943.5809;;;;
2022/12/28 08:29:06;;;;;;;7.2;5.1;;;;;;;2.27;95.22852;943.6287;;;;
2022/12/28 08:31:31;;;;;;;7.4;4.8;;;;;;;2.29;94.9082;943.6078;;;;
2022/12/28 08:33:56;;;;;;;7.8;5.1;;;;;;;2.35;96.22168;943.6139;;;;
2022/12/28 08:36:21;;;;;;;5.7;4.2;;;;;;;2.4;95.4248;943.6554;;;;
2022/12/28 08:38:49;;;;;;;4.6;3.5;;;;;;;2.48;94.99512;943.6263;;;;
2022/12/28 08:41:15;;;;;;;4.1;3.2;;;;;;;2.42;94.75879;943.6214;;;;
2022/12/28 08:43:39;;;;;;;4.6;3.8;;;;;;;2.33;95.09473;943.6055;;;;
2022/12/28 08:46:07;;;;;;;10.3;6.9;;;;;;;2.26;95.56055;943.5975;;;;
2022/12/28 08:48:32;;;;;;;5.8;4.7;;;;;;;2.36;95.83105;943.5248;;;;
2022/12/28 08:50:57;;;;;;;4.3;3.9;;;;;;;2.5;98.59863;943.5781;;;;
2022/12/28 08:53:23;;;;;;;4.9;4.1;;;;;;;2.45;97.06152;943.6213;;;;
2022/12/28 08:55:51;;;;;;;4.3;3.5;;;;;;;2.36;96.29102;943.6873;;;;
2022/12/28 08:58:16;;;;;;;8.1;4.9;;;;;;;2.25;96.43359;943.697;;;;
2022/12/28 09:00:43;;;;;;;6.9;4.9;;;;;;;2.23;96.76563;943.6827;;;;
2022/12/28 09:03:09;;;;;;;7.9;5.3;;;;;;;2.47;96.53906;943.5963;;;;
2022/12/28 09:05:37;;;;;;;7.4;5.4;;;;;;;2.42;96.36133;943.6026;;;;
2022/12/28 09:08:02;;;;;;;8.7;6.6;;;;;;;2.67;96.04688;943.5698;;;;
2022/12/28 09:10:28;;;;;;;10.2;7.3;;;;;;;2.98;95.68945;943.5374;;;;
2022/12/28 09:12:53;;;;;;;10.3;8.5;;;;;;;3.38;93.55566;943.4952;;;;
2022/12/28 09:15:21;;;;;;;9.2;7.8;;;;;;;3.56;92.46094;943.4604;;;;
2022/12/28 09:17:46;;;;;;;8.7;6.7;;;;;;;3.58;91.96094;943.4755;;;;
2022/12/28 09:20:14;;;;;;;9.2;7;;;;;;;3.53;91.91602;943.4512;;;;
2022/12/28 09:22:38;;;;;;;4.4;3.5;;;;;;;3.44;92.44922;943.3812;;;;
2022/12/28 09:25:07;;;;;;;5.7;4.5;;;;;;;3.25;92.80957;943.4149;;;;
2022/12/28 09:27:32;;;;;;;3.2;2.3;;;;;;;3.31;92.22852;943.4146;;;;
2022/12/28 09:29:59;;;;;;;2.9;2.4;;;;;;;3.63;90.8252;943.408;;;;
2022/12/28 09:32:24;;;;;;;5;3.8;;;;;;;3.54;90.85059;943.3641;;;;
2022/12/28 09:34:53;;;;;;;4.4;4;;;;;;;3.77;90.57324;943.35;;;;
2022/12/28 09:37:24;;;;;;;4.7;2.9;;;;;;;3.78;90.2627;943.2726;;;;
2022/12/28 09:39:49;;;;;;;3.3;2.3;;;;;;;3.86;89.7959;943.1945;;;;
2022/12/28 09:42:17;;;;;;;4.4;3.3;;;;;;;3.79;89.41016;943.165;;;;
2022/12/28 09:44:42;;;;;;;3.8;3;;;;;;;3.76;90.4043;943.118;;;;
2022/12/28 09:47:08;;;;;;;4.8;3.7;;;;;;;3.8;90.52637;943.1484;;;;
2022/12/28 09:49:32;;;;;;;3.7;2.7;;;;;;;3.85;89.89551;943.1191;;;;
2022/12/28 09:52:03;;;;;;;4.4;3.3;;;;;;;3.73;88.20703;943.0303;;;;
2022/12/28 09:54:29;;;;;;;2.9;2.5;;;;;;;3.92;87.97656;943.1261;;;;
2022/12/28 09:56:55;;;;;;;4.9;3.4;;;;;;;3.95;87.30762;943.0909;;;;
2022/12/28 09:59:19;;;;;;;4.7;3.3;;;;;;;4.03;88.67188;943.0008;;;;
2022/12/28 10:01:47;;;;;;;5.3;3.8;;;;;;;4.15;88.87695;942.9655;;;;
2022/12/28 10:04:13;;;;;;;7.4;5.3;;;;;;;4.34;89.60449;942.9758;;;;
2022/12/28 10:06:39;;;;;;;10.9;8;;;;;;;4.34;90.68457;942.9233;;;;
2022/12/28 10:09:04;;;;;;;9;6.3;;;;;;;4.19;90.63184;942.8342;;;;
2022/12/28 10:11:33;;;;;;;14.9;9.1;;;;;;;4.04;91.4082;942.7697;;;;
2022/12/28 10:13:58;;;;;;;23.7;11.5;;;;;;;4.09;91.21582;942.7056;;;;
2022/12/28 10:16:24;;;;;;;8.4;5.8;;;;;;;4.09;90.95703;942.7243;;;;
2022/12/28 10:18:55;;;;;;;8.1;5.5;;;;;;;4.23;90.7627;942.6603;;;;
2022/12/28 10:21:24;;;;;;;6.6;4.8;;;;;;;4.33;90.49121;942.5492;;;;
2022/12/28 10:23:49;;;;;;;11.9;7.2;;;;;;;4.19;90.82324;942.4984;;;;
2022/12/28 10:26:18;;;;;;;10.2;6.1;;;;;;;4.41;90.82422;942.4832;;;;
2022/12/28 10:28:46;;;;;;;5.1;3.1;;;;;;;4.65;89.35352;942.4255;;;;
2022/12/28 10:31:12;;;;;;;3.1;2.3;;;;;;;4.64;88.33984;942.3638;;;;
2022/12/28 10:33:37;;;;;;;3.4;2.6;;;;;;;4.46;88.70605;942.3203;;;;
2022/12/28 10:36:06;;;;;;;3.5;2.5;;;;;;;4.4;89.48047;942.2838;;;;
2022/12/28 10:38:31;;;;;;;3.9;3.1;;;;;;;4.28;90.14258;942.2011;;;;
2022/12/28 10:40:56;;;;;;;3.6;2.9;;;;;;;4;89.47754;942.1627;;;;
2022/12/28 10:43:24;;;;;;;4.5;3.3;;;;;;;4.1;90.66895;942.104;;;;
2022/12/28 10:45:49;;;;;;;3.5;2.3;;;;;;;4.11;90.24316;942.0839;;;;
2022/12/28 10:48:16;;;;;;;4.4;2.6;;;;;;;4.17;89.42188;942.0332;;;;
2022/12/28 10:50:41;;;;;;;4;2.5;;;;;;;4.2;90.71191;941.9889;;;;
2022/12/28 10:53:06;;;;;;;2.8;2.3;;;;;;;4.28;90.80664;941.9725;;;;
2022/12/28 10:55:31;;;;;;;3.5;2.7;;;;;;;4.35;90.18945;941.8773;;;;
2022/12/28 10:57:59;;;;;;;4;2.9;;;;;;;4.26;91.39844;941.8882;;;;
2022/12/28 11:00:24;;;;;;;4.8;3.3;;;;;;;4.25;90.00195;941.8351;;;;
2022/12/28 11:02:52;;;;;;;4.1;2.8;;;;;;;4.34;91.40527;941.6941;;;;
2022/12/28 11:05:17;;;;;;;4.3;2.9;;;;;;;4.52;90.14941;941.7092;;;;
2022/12/28 11:07:44;;;;;;;3.2;2.3;;;;;;;4.87;86.1123;941.6155;;;;
2022/12/28 11:10:12;;;;;;;4.7;3;;;;;;;4.95;84.48145;941.5544;;;;
2022/12/28 11:12:37;;;;;;;5.6;4.7;;;;;;;5.15;85.92871;941.5599;;;;
2022/12/28 11:15:06;;;;;;;4.4;4;;;;;;;5.32;85.1416;941.4423;;;;
2022/12/28 11:17:32;;;;;;;4.3;3.7;;;;;;;5.46;84.91992;941.5142;;;;
2022/12/28 11:19:57;;;;;;;4.4;3;;;;;;;5.33;84.60156;941.3826;;;;
2022/12/28 11:22:26;;;;;;;5.5;4.2;;;;;;;5.49;86.30176;941.4285;;;;
2022/12/28 11:24:55;;;;;;;5.6;3.9;;;;;;;5.56;86.95996;941.3477;;;;
2022/12/28 11:27:20;;;;;;;5;3.7;;;;;;;5.78;85.3125;941.2598;;;;
2022/12/28 11:29:45;;;;;;;4.1;3.3;;;;;;;5.89;83.75293;941.2296;;;;
2022/12/28 11:32:10;;;;;;;4.6;3.8;;;;;;;5.95;84.95117;941.1568;;;;
2022/12/28 11:34:37;;;;;;;4.9;3.6;;;;;;;6.37;83.76855;941.1456;;;;
2022/12/28 11:37:03;;;;;;;4.2;3.5;;;;;;;6.3;83.08789;941.1055;;;;
2022/12/28 11:39:28;;;;;;;4.5;3.2;;;;;;;6.13;82.71387;941.04;;;;
2022/12/28 11:41:54;;;;;;;4.1;3.3;;;;;;;6.29;80.42773;941.0095;;;;
2022/12/28 11:44:20;;;;;;;5.3;3;;;;;;;6.44;80.12793;940.9716;;;;
2022/12/28 11:46:45;;;;;;;2.7;2.2;;;;;;;6.44;77.23145;940.9382;;;;
2022/12/28 11:49:12;;;;;;;3.4;2;;;;;;;6.43;77.15234;940.8969;;;;
2022/12/28 11:51:37;;;;;;;6.8;3.2;;;;;;;6.73;77.74707;940.8097;;;;
2022/12/28 11:54:40;;;;;;;7.2;3;;;;;;;7.01;77.35938;940.777;;;;
2022/12/28 11:57:10;;;;;;;8.2;4.5;;;;;;;7.04;78.80176;940.7239;;;;
2022/12/28 11:59:33;;;;;;;5.9;3.7;;;;;;;7.13;77.16406;940.6763;;;;
2022/12/28 12:01:59;;;;;;;7;3;;;;;;;7.14;77.13379;940.6894;;;;
2022/12/28 12:04:25;;;;;;;5.1;3;;;;;;;6.96;77.8125;940.6106;;;;
2022/12/28 12:06:50;;;;;;;5.3;3.6;;;;;;;7.11;78.58984;940.5239;;;;
2022/12/28 12:09:31;;;;;;;4.6;3.1;;;;;;;7.21;77.84766;940.5307;;;;
2022/12/28 12:11:58;;;;;;;5;3;;;;;;;7.07;77.96777;940.5377;;;;
2022/12/28 12:14:23;;;;;;;7.2;3.9;;;;;;;6.94;78.04688;940.52;;;;
2022/12/28 12:16:49;;;;;;;8.5;4.4;;;;;;;7.39;79.12695;940.4528;;;;
2022/12/28 12:19:14;;;;;;;7.3;4.6;;;;;;;7.53;76.62305;940.3409;;;;
2022/12/28 12:21:39;;;;;;;5.2;3.5;;;;;;;7.12;76.62988;940.323;;;;
2022/12/28 12:24:05;;;;;;;5.3;2.8;;;;;;;7.39;74.97656;940.2372;;;;
2022/12/28 12:26:30;;;;;;;7.2;3.2;;;;;;;7.46;76.9502;940.2472;;;;
2022/12/28 12:28:58;;;;;;;7.5;3.4;;;;;;;7.06;78.05762;940.1805;;;;
2022/12/28 12:31:23;;;;;;;6;3;;;;;;;7.18;77.17188;940.2144;;;;
2022/12/28 12:33:48;;;;;;;4.8;2.6;;;;;;;7.47;76.63672;940.1089;;;;
2022/12/28 12:36:13;;;;;;;6.6;2.8;;;;;;;7.41;74.60938;940.0853;;;;
2022/12/28 12:38:39;;;;;;;5.4;2.5;;;;;;;7.34;75.57129;940.1292;;;;
2022/12/28 12:41:04;;;;;;;10.2;3.1;;;;;;;7.39;76.58789;940.1534;;;;
2022/12/28 12:43:31;;;;;;;5.9;3.1;;;;;;;7.2;77.40234;940.1499;;;;
2022/12/28 12:46:00;;;;;;;5.7;2.8;;;;;;;7.27;75.11621;940.0553;;;;
2022/12/28 12:48:25;;;;;;;7.7;3.5;;;;;;;7.15;75.64941;939.9721;;;;
2022/12/28 12:50:50;;;;;;;8.1;3;;;;;;;7.22;75.44727;939.9582;;;;
2022/12/28 12:53:15;;;;;;;5.6;3.5;;;;;;;7.43;77.62598;939.9169;;;;
2022/12/28 12:55:40;;;;;;;5.4;3.9;;;;;;;7.32;79.71582;939.9339;;;;
2022/12/28 12:58:07;;;;;;;4.4;2.8;;;;;;;7.38;77.55957;939.9185;;;;
2022/12/28 13:00:32;;;;;;;3;2.4;;;;;;;7.39;75.52246;939.9117;;;;
2022/12/28 13:02:57;;;;;;;4.1;2.5;;;;;;;7.31;76.13086;939.8741;;;;
2022/12/28 13:05:23;;;;;;;4.6;2.5;;;;;;;7.49;75.13184;939.805;;;;
2022/12/28 13:07:51;;;;;;;4.4;2.2;;;;;;;7.75;74.57617;939.7883;;;;
2022/12/28 13:10:20;;;;;;;3.5;2.1;;;;;;;7.82;70.40039;939.7464;;;;
2022/12/28 13:12:46;;;;;;;2.2;1.9;;;;;;;7.73;70.26074;939.7117;;;;
2022/12/28 13:15:11;;;;;;;2.1;1.8;;;;;;;7.74;69.08398;939.655;;;;
2022/12/28 13:17:42;;;;;;;2.7;2;;;;;;;7.84;68.13574;939.6495;;;;
2022/12/28 13:20:07;;;;;;;4.2;2.3;;;;;;;7.83;67.74805;939.5336;;;;
2022/12/28 13:22:36;;;;;;;2.6;2;;;;;;;7.96;71.04883;939.5759;;;;
2022/12/28 13:25:01;;;;;;;7.4;5;;;;;;;8.08;71.7959;939.5067;;;;
2022/12/28 13:27:26;;;;;;;16.1;9.8;;;;;;;8.1;73.05957;939.5751;;;;
2022/12/28 13:29:52;;;;;;;12.3;6.5;;;;;;;8.23;73.59375;939.552;;;;
2022/12/28 13:32:19;;;;;;;20.8;10;;;;;;;8.6;71.91602;939.4604;;;;
2022/12/28 13:34:44;;;;;;;7.7;4.5;;;;;;;10.28;65.96582;939.5427;;;;
2022/12/28 13:37:10;;;;;;;3.3;1.8;;;;;;;11.88;57.37988;939.4302;;;;
2022/12/28 13:39:35;;;;;;;1.8;1.4;;;;;;;11.92;55.10645;939.4528;;;;
2022/12/28 13:42:03;;;;;;;2.8;1.8;;;;;;;11.24;55.96973;939.4236;;;;
2022/12/28 13:44:28;;;;;;;3.3;2;;;;;;;10.56;58.12988;939.4459;;;;
2022/12/28 13:46:57;;;;;;;5.4;2.4;;;;;;;10.31;59.44336;939.4109;;;;
2022/12/28 13:49:22;;;;;;;8.1;3.1;;;;;;;10.43;59.18652;939.4858;;;;
2022/12/28 13:51:47;;;;;;;7;3.1;;;;;;;10.11;59.08496;939.3769;;;;
2022/12/28 13:54:12;;;;;;;5.5;3;;;;;;;9.29;61.46582;939.4767;;;;
2022/12/28 13:56:38;;;;;;;6.8;3.3;;;;;;;8.86;63.89453;939.522;;;;
2022/12/28 13:59:04;;;;;;;7.1;4.9;;;;;;;8.39;67.00781;939.5696;;;;
2022/12/28 14:01:30;;;;;;;4.2;3.1;;;;;;;7.58;71.12207;939.6945;;;;
2022/12/28 14:03:58;;;;;;;3.3;2.5;;;;;;;7.02;73.70215;939.7076;;;;
2022/12/28 14:06:23;;;;;;;3.3;2.6;;;;;;;6.62;76.32617;939.7222;;;;
2022/12/28 14:08:49;;;;;;;4.9;3;;;;;;;6.35;77.35254;939.8116;;;;
2022/12/28 14:11:16;;;;;;;4.8;3.3;;;;;;;6.22;78.18652;939.8119;;;;
2022/12/28 14:13:41;;;;;;;6.1;3.8;;;;;;;6.24;78.73242;939.7983;;;;
2022/12/28 14:16:11;;;;;;;5.8;3.6;;;;;;;6.28;78.79785;939.7227;;;;
2022/12/28 14:18:36;;;;;;;4;2.9;;;;;;;6.29;78.42578;939.7592;;;;
2022/12/28 14:21:02;;;;;;;4.1;3.3;;;;;;;6.37;77.79785;939.8122;;;;
2022/12/28 14:23:27;;;;;;;4.5;3.5;;;;;;;6.44;77.07422;939.8326;;;;
2022/12/28 14:25:55;;;;;;;6.1;3.9;;;;;;;6.43;76.95801;939.8376;;;;
2022/12/28 14:28:20;;;;;;;8.3;5.4;;;;;;;6.11;79.01465;939.8275;;;;
2022/12/28 14:30:45;;;;;;;7.4;4.8;;;;;;;6.1;79.65723;939.8043;;;;
2022/12/28 14:33:11;;;;;;;7.4;5.1;;;;;;;6.04;78.50391;939.8491;;;;
2022/12/28 14:35:36;;;;;;;7.7;5.5;;;;;;;5.89;78.30859;939.7977;;;;
2022/12/28 14:38:02;;;;;;;10.9;7;;;;;;;5.82;78.84863;939.8144;;;;
2022/12/28 14:40:27;;;;;;;11.6;8.3;;;;;;;5.73;79.39453;939.7854;;;;
2022/12/28 14:42:55;;;;;;;16.6;9.5;;;;;;;5.71;80.03613;939.7834;;;;
2022/12/28 14:45:22;;;;;;;14.6;8.5;;;;;;;5.61;80.87598;939.7875;;;;
2022/12/28 14:47:48;;;;;;;12.4;8.2;;;;;;;5.64;81.20801;939.7963;;;;
2022/12/28 14:50:13;;;;;;;9.2;6.2;;;;;;;5.57;81.10449;939.7907;;;;
2022/12/28 14:52:43;;;;;;;8.1;5.4;;;;;;;5.29;82.6543;939.7558;;;;
2022/12/28 14:55:07;;;;;;;6.9;5.1;;;;;;;5.16;83.86914;939.8248;;;;
2022/12/28 14:57:32;;;;;;;8.6;5.6;;;;;;;5.13;84.41602;939.8206;;;;
2022/12/28 14:59:58;;;;;;;11.7;7.5;;;;;;;5.04;84.97266;939.8194;;;;
2022/12/28 15:02:24;;;;;;;32.2;16.2;;;;;;;5.07;85.41602;939.8492;;;;
2022/12/28 15:04:52;;;;;;;18.2;11;;;;;;;4.9;86.18555;939.8137;;;;
2022/12/28 15:07:19;;;;;;;12.8;8.3;;;;;;;4.78;87.33008;939.8589;;;;
2022/12/28 15:09:45;;;;;;;12.4;8.9;;;;;;;4.71;88.01563;939.8331;;;;
2022/12/28 15:12:11;;;;;;;12.8;9.3;;;;;;;4.65;88.50879;939.8498;;;;
2022/12/28 15:14:37;;;;;;;15.2;9.7;;;;;;;4.66;88.38867;939.8701;;;;
2022/12/28 15:17:03;;;;;;;26.4;14.9;;;;;;;4.59;88.7002;939.7836;;;;
2022/12/28 15:19:28;;;;;;;17.7;12.3;;;;;;;4.5;89.16602;939.8304;;;;
2022/12/28 15:21:56;;;;;;;15.9;11.3;;;;;;;4.42;89.56543;939.845;;;;
2022/12/28 15:24:25;;;;;;;17.3;11.7;;;;;;;4.34;90.03223;939.87;;;;
2022/12/28 15:26:50;;;;;;;13.4;9.7;;;;;;;4.25;90.35059;939.9089;;;;
2022/12/28 15:29:18;;;;;;;13.6;8.8;;;;;;;4.09;91.25;939.8122;;;;
2022/12/28 15:31:47;;;;;;;13;9.1;;;;;;;3.89;92.10645;939.8368;;;;
2022/12/28 15:34:14;;;;;;;15.5;10.4;;;;;;;3.89;92.46582;939.8298;;;;
2022/12/28 15:36:41;;;;;;;16.7;10.3;;;;;;;3.81;92.80859;939.7985;;;;
2022/12/28 15:39:11;;;;;;;15;10.1;;;;;;;3.78;92.91504;939.7918;;;;
2022/12/28 15:41:49;;;;;;;14.5;10.3;;;;;;;3.74;93.00781;939.7784;;;;
2022/12/28 15:44:08;;;;;;;15;10.1;;;;;;;3.85;92.41309;939.8002;;;;
2022/12/28 15:46:33;;;;;;;16.8;11.7;;;;;;;3.93;91.94727;939.7755;;;;
2022/12/28 15:49:02;;;;;;;37.4;30.9;;;;;;;3.85;92.55957;939.7544;;;;
2022/12/28 15:51:32;;;;;;;40.3;25.6;;;;;;;3.8;92.81738;939.7183;;;;
2022/12/28 15:53:57;;;;;;;29.5;18.1;;;;;;;3.77;92.65625;939.7252;;;;
2022/12/28 15:56:25;;;;;;;22.9;14.5;;;;;;;3.67;92.93555;939.7244;;;;
2022/12/28 15:58:50;;;;;;;20.2;12.5;;;;;;;3.62;93.37598;939.7394;;;;
2022/12/28 16:01:16;;;;;;;15.1;10.1;;;;;;;3.63;93.27637;939.7523;;;;
2022/12/28 16:03:41;;;;;;;13.5;9.5;;;;;;;3.57;93.6875;939.7188;;;;
2022/12/28 16:06:06;;;;;;;10;7.2;;;;;;;3.46;94.23633;939.7179;;;;
2022/12/28 16:08:34;;;;;;;9.1;6.2;;;;;;;3.38;94.89453;939.7414;;;;
2022/12/28 16:11:03;;;;;;;7.9;6;;;;;;;3.44;94.96191;939.7477;;;;
2022/12/28 16:13:28;;;;;;;8.4;6.7;;;;;;;3.44;94.7373;939.7085;;;;
2022/12/28 16:16:02;;;;;;;17.7;11;;;;;;;3.39;95.19922;939.7072;;;;